DAOR/CBH METAR and TAF weather

Enter ICAO airport designator
Station Type Date Time Source
DAOR METAR 2018/06/25 02:00 UTC NOAA

DAOR 250200Z 08006KT CAVOK 25/M03 Q1015


Station Type Date Time Source
DAOR Decoded METAR 2018/06/25 02:00 UTC NOAA

Bechar, Algeria (DAOR) 31-37N 002-14W 773M
Jun 24, 2018 - 10:00 PM EDT / 2018.06.25 0200 UTC
Wind: from the E (080 degrees) at 7 MPH (6 KT):0
Visibility: greater than 7 mile(s):0
Temperature: 77 F (25 C)
Dew Point: 26 F (-3 C)
Relative Humidity: 15%
Pressure (altimeter): 29.97 in. Hg (1015 hPa)
ob: DAOR 250200Z 08006KT CAVOK 25/M03 Q1015
cycle: 2

Station Type Date Time Source
DAOR TAF 2017/11/09 18:03 UTC NOAA

TAF DAOR 091700Z 0918/1009 35010KT 6000 FEW033 SCT100
TEMPO 0918/0924 3000 BLSA PROB40
TEMPO 0918/0924 35020G35KT 2000 -TSRA FEW030CB


Example: see airport list